sensor_id;sensor_type;location;lat;lon;timestamp;P1;durP1;ratioP1;P2;durP2;ratioP2
12232;SDS011;6179;51.748;8.728;2023-12-20T00:04:40;13.93;;;5.67;;
12232;SDS011;6179;51.748;8.728;2023-12-20T00:10:41;10.13;;;5.07;;
12232;SDS011;6179;51.748;8.728;2023-12-20T00:16:42;7.87;;;3.73;;
12232;SDS011;6179;51.748;8.728;2023-12-20T00:22:43;5.20;;;2.63;;
12232;SDS011;6179;51.748;8.728;2023-12-20T00:28:44;6.10;;;1.83;;
12232;SDS011;6179;51.748;8.728;2023-12-20T00:34:45;8.20;;;2.43;;
12232;SDS011;6179;51.748;8.728;2023-12-20T00:40:46;4.37;;;2.17;;
12232;SDS011;6179;51.748;8.728;2023-12-20T00:46:49;7.63;;;3.47;;
12232;SDS011;6179;51.748;8.728;2023-12-20T00:52:50;4.37;;;2.47;;
12232;SDS011;6179;51.748;8.728;2023-12-20T00:58:51;3.63;;;2.50;;
12232;SDS011;6179;51.748;8.728;2023-12-20T01:04:52;7.67;;;2.87;;
12232;SDS011;6179;51.748;8.728;2023-12-20T01:10:53;6.57;;;2.70;;
12232;SDS011;6179;51.748;8.728;2023-12-20T01:16:54;1.90;;;1.53;;
12232;SDS011;6179;51.748;8.728;2023-12-20T01:22:55;6.17;;;1.20;;
12232;SDS011;6179;51.748;8.728;2023-12-20T01:28:56;5.23;;;1.60;;
12232;SDS011;6179;51.748;8.728;2023-12-20T01:34:57;6.40;;;0.90;;
12232;SDS011;6179;51.748;8.728;2023-12-20T01:40:58;2.67;;;1.57;;
12232;SDS011;6179;51.748;8.728;2023-12-20T01:47:00;2.73;;;1.30;;
12232;SDS011;6179;51.748;8.728;2023-12-20T01:53:01;11.43;;;0.90;;
12232;SDS011;6179;51.748;8.728;2023-12-20T01:59:03;7.07;;;2.00;;
12232;SDS011;6179;51.748;8.728;2023-12-20T02:05:05;1.63;;;1.40;;
12232;SDS011;6179;51.748;8.728;2023-12-20T02:11:06;7.53;;;1.10;;
12232;SDS011;6179;51.748;8.728;2023-12-20T02:17:07;7.50;;;1.80;;
12232;SDS011;6179;51.748;8.728;2023-12-20T02:23:08;6.53;;;2.10;;
12232;SDS011;6179;51.748;8.728;2023-12-20T02:29:09;4.63;;;2.00;;
12232;SDS011;6179;51.748;8.728;2023-12-20T02:35:10;3.07;;;0.90;;
12232;SDS011;6179;51.748;8.728;2023-12-20T02:41:11;2.70;;;1.27;;
12232;SDS011;6179;51.748;8.728;2023-12-20T02:47:12;6.73;;;1.40;;
12232;SDS011;6179;51.748;8.728;2023-12-20T02:53:13;5.63;;;1.00;;
12232;SDS011;6179;51.748;8.728;2023-12-20T02:59:14;12.47;;;2.80;;
12232;SDS011;6179;51.748;8.728;2023-12-20T03:05:15;9.50;;;3.03;;
12232;SDS011;6179;51.748;8.728;2023-12-20T03:11:16;10.33;;;2.13;;
12232;SDS011;6179;51.748;8.728;2023-12-20T03:17:17;19.67;;;2.63;;
12232;SDS011;6179;51.748;8.728;2023-12-20T03:23:19;5.93;;;1.90;;
12232;SDS011;6179;51.748;8.728;2023-12-20T03:29:20;9.40;;;2.87;;
12232;SDS011;6179;51.748;8.728;2023-12-20T03:35:21;13.47;;;2.70;;
12232;SDS011;6179;51.748;8.728;2023-12-20T03:41:23;5.27;;;2.40;;
12232;SDS011;6179;51.748;8.728;2023-12-20T03:47:24;25.83;;;2.50;;
12232;SDS011;6179;51.748;8.728;2023-12-20T03:53:24;6.30;;;3.00;;
12232;SDS011;6179;51.748;8.728;2023-12-20T03:59:25;10.80;;;2.37;;
12232;SDS011;6179;51.748;8.728;2023-12-20T04:05:26;6.43;;;2.43;;
12232;SDS011;6179;51.748;8.728;2023-12-20T04:11:27;6.23;;;1.73;;
12232;SDS011;6179;51.748;8.728;2023-12-20T04:17:28;15.77;;;3.30;;
12232;SDS011;6179;51.748;8.728;2023-12-20T04:23:29;14.57;;;2.43;;
12232;SDS011;6179;51.748;8.728;2023-12-20T04:29:30;10.90;;;1.77;;
12232;SDS011;6179;51.748;8.728;2023-12-20T04:35:31;9.50;;;2.20;;
12232;SDS011;6179;51.748;8.728;2023-12-20T04:41:32;7.47;;;2.00;;
12232;SDS011;6179;51.748;8.728;2023-12-20T04:47:33;5.67;;;3.17;;
12232;SDS011;6179;51.748;8.728;2023-12-20T04:53:34;5.27;;;1.77;;
12232;SDS011;6179;51.748;8.728;2023-12-20T04:59:35;14.63;;;2.23;;
12232;SDS011;6179;51.748;8.728;2023-12-20T05:05:36;7.60;;;1.40;;
12232;SDS011;6179;51.748;8.728;2023-12-20T05:11:37;3.87;;;1.67;;
12232;SDS011;6179;51.748;8.728;2023-12-20T05:17:39;15.50;;;3.33;;
12232;SDS011;6179;51.748;8.728;2023-12-20T05:23:40;12.53;;;2.47;;
12232;SDS011;6179;51.748;8.728;2023-12-20T05:29:41;13.83;;;2.07;;
12232;SDS011;6179;51.748;8.728;2023-12-20T05:35:42;9.97;;;3.73;;
12232;SDS011;6179;51.748;8.728;2023-12-20T05:41:43;15.73;;;3.23;;
12232;SDS011;6179;51.748;8.728;2023-12-20T05:47:44;10.90;;;3.00;;
12232;SDS011;6179;51.748;8.728;2023-12-20T05:53:45;22.03;;;4.80;;
12232;SDS011;6179;51.748;8.728;2023-12-20T05:59:46;31.63;;;3.73;;
12232;SDS011;6179;51.748;8.728;2023-12-20T06:05:47;12.73;;;3.50;;
12232;SDS011;6179;51.748;8.728;2023-12-20T06:11:49;5.10;;;3.40;;
12232;SDS011;6179;51.748;8.728;2023-12-20T06:17:51;23.47;;;6.03;;
12232;SDS011;6179;51.748;8.728;2023-12-20T06:23:52;11.03;;;4.07;;
12232;SDS011;6179;51.748;8.728;2023-12-20T06:29:53;11.93;;;4.47;;
12232;SDS011;6179;51.748;8.728;2023-12-20T06:35:54;11.10;;;4.20;;
12232;SDS011;6179;51.748;8.728;2023-12-20T06:41:55;12.10;;;4.80;;
12232;SDS011;6179;51.748;8.728;2023-12-20T06:47:56;7.80;;;4.17;;
12232;SDS011;6179;51.748;8.728;2023-12-20T06:53:57;11.77;;;7.30;;
12232;SDS011;6179;51.748;8.728;2023-12-20T06:59:58;10.63;;;4.67;;
12232;SDS011;6179;51.748;8.728;2023-12-20T07:05:58;28.93;;;5.80;;
12232;SDS011;6179;51.748;8.728;2023-12-20T07:12:00;16.53;;;4.27;;
12232;SDS011;6179;51.748;8.728;2023-12-20T07:18:01;9.20;;;4.60;;
12232;SDS011;6179;51.748;8.728;2023-12-20T07:24:02;17.77;;;4.27;;
12232;SDS011;6179;51.748;8.728;2023-12-20T07:30:03;20.63;;;3.90;;
12232;SDS011;6179;51.748;8.728;2023-12-20T07:36:04;21.40;;;6.30;;
12232;SDS011;6179;51.748;8.728;2023-12-20T07:42:05;16.33;;;5.00;;
12232;SDS011;6179;51.748;8.728;2023-12-20T07:48:06;16.23;;;4.50;;
12232;SDS011;6179;51.748;8.728;2023-12-20T07:54:07;18.17;;;6.90;;
12232;SDS011;6179;51.748;8.728;2023-12-20T08:00:08;18.40;;;5.50;;
12232;SDS011;6179;51.748;8.728;2023-12-20T08:06:09;27.43;;;5.97;;
12232;SDS011;6179;51.748;8.728;2023-12-20T08:12:10;16.80;;;3.47;;
12232;SDS011;6179;51.748;8.728;2023-12-20T08:18:11;31.27;;;5.90;;
12232;SDS011;6179;51.748;8.728;2023-12-20T08:24:12;26.63;;;3.83;;
12232;SDS011;6179;51.748;8.728;2023-12-20T08:30:13;24.20;;;8.37;;
12232;SDS011;6179;51.748;8.728;2023-12-20T08:36:17;26.80;;;5.73;;
12232;SDS011;6179;51.748;8.728;2023-12-20T08:42:19;8.73;;;4.57;;
12232;SDS011;6179;51.748;8.728;2023-12-20T08:48:20;18.70;;;4.93;;
12232;SDS011;6179;51.748;8.728;2023-12-20T08:54:21;18.20;;;5.03;;
12232;SDS011;6179;51.748;8.728;2023-12-20T09:00:22;10.70;;;3.40;;
12232;SDS011;6179;51.748;8.728;2023-12-20T09:06:25;13.03;;;4.53;;
12232;SDS011;6179;51.748;8.728;2023-12-20T09:12:26;10.93;;;3.73;;
12232;SDS011;6179;51.748;8.728;2023-12-20T09:18:27;22.53;;;3.97;;
12232;SDS011;6179;51.748;8.728;2023-12-20T09:24:28;24.63;;;3.40;;
12232;SDS011;6179;51.748;8.728;2023-12-20T09:30:29;26.87;;;4.73;;
12232;SDS011;6179;51.748;8.728;2023-12-20T09:36:31;6.50;;;3.10;;
12232;SDS011;6179;51.748;8.728;2023-12-20T09:48:36;19.13;;;4.67;;
12232;SDS011;6179;51.748;8.728;2023-12-20T09:54:38;7.90;;;3.77;;
12232;SDS011;6179;51.748;8.728;2023-12-20T10:00:39;16.57;;;4.10;;
12232;SDS011;6179;51.748;8.728;2023-12-20T10:06:43;16.80;;;5.80;;
12232;SDS011;6179;51.748;8.728;2023-12-20T10:19:04;30.33;;;5.03;;
12232;SDS011;6179;51.748;8.728;2023-12-20T10:25:05;6.80;;;4.40;;
12232;SDS011;6179;51.748;8.728;2023-12-20T10:31:06;23.63;;;4.03;;
12232;SDS011;6179;51.748;8.728;2023-12-20T10:37:07;10.70;;;4.30;;
12232;SDS011;6179;51.748;8.728;2023-12-20T10:43:08;13.77;;;4.60;;
12232;SDS011;6179;51.748;8.728;2023-12-20T10:49:10;10.43;;;4.07;;
12232;SDS011;6179;51.748;8.728;2023-12-20T10:55:11;5.53;;;3.40;;
12232;SDS011;6179;51.748;8.728;2023-12-20T11:01:13;17.80;;;4.93;;
12232;SDS011;6179;51.748;8.728;2023-12-20T11:13:53;20.43;;;3.90;;
12232;SDS011;6179;51.748;8.728;2023-12-20T11:25:56;15.30;;;3.97;;
12232;SDS011;6179;51.748;8.728;2023-12-20T11:32:02;14.30;;;4.50;;
12232;SDS011;6179;51.748;8.728;2023-12-20T11:38:03;23.37;;;6.10;;
12232;SDS011;6179;51.748;8.728;2023-12-20T11:44:05;6.33;;;3.80;;
12232;SDS011;6179;51.748;8.728;2023-12-20T11:50:06;8.83;;;6.30;;
12232;SDS011;6179;51.748;8.728;2023-12-20T11:56:07;12.90;;;3.73;;
12232;SDS011;6179;51.748;8.728;2023-12-20T12:02:11;11.60;;;4.37;;
12232;SDS011;6179;51.748;8.728;2023-12-20T12:08:12;9.37;;;3.27;;
12232;SDS011;6179;51.748;8.728;2023-12-20T12:14:13;16.73;;;4.13;;
12232;SDS011;6179;51.748;8.728;2023-12-20T12:20:14;9.73;;;4.50;;
12232;SDS011;6179;51.748;8.728;2023-12-20T12:26:15;7.60;;;3.40;;
12232;SDS011;6179;51.748;8.728;2023-12-20T12:32:16;13.13;;;4.20;;
12232;SDS011;6179;51.748;8.728;2023-12-20T12:38:19;18.23;;;3.80;;
12232;SDS011;6179;51.748;8.728;2023-12-20T12:44:21;15.27;;;5.17;;
12232;SDS011;6179;51.748;8.728;2023-12-20T12:50:23;12.07;;;5.27;;
12232;SDS011;6179;51.748;8.728;2023-12-20T12:56:24;8.23;;;3.03;;
12232;SDS011;6179;51.748;8.728;2023-12-20T13:02:25;4.70;;;3.30;;
12232;SDS011;6179;51.748;8.728;2023-12-20T13:08:26;9.17;;;3.10;;
12232;SDS011;6179;51.748;8.728;2023-12-20T13:14:27;8.83;;;3.33;;
12232;SDS011;6179;51.748;8.728;2023-12-20T13:20:28;11.40;;;3.57;;
12232;SDS011;6179;51.748;8.728;2023-12-20T13:26:29;4.30;;;1.80;;
12232;SDS011;6179;51.748;8.728;2023-12-20T13:32:30;8.87;;;3.20;;
12232;SDS011;6179;51.748;8.728;2023-12-20T13:38:31;12.50;;;2.87;;
12232;SDS011;6179;51.748;8.728;2023-12-20T13:44:32;6.87;;;2.87;;
12232;SDS011;6179;51.748;8.728;2023-12-20T13:50:34;15.63;;;2.00;;
12232;SDS011;6179;51.748;8.728;2023-12-20T13:56:35;7.30;;;2.60;;
12232;SDS011;6179;51.748;8.728;2023-12-20T14:02:36;24.43;;;3.67;;
12232;SDS011;6179;51.748;8.728;2023-12-20T14:08:37;4.50;;;2.77;;
12232;SDS011;6179;51.748;8.728;2023-12-20T14:14:38;6.10;;;4.47;;
12232;SDS011;6179;51.748;8.728;2023-12-20T14:20:39;8.80;;;3.10;;
12232;SDS011;6179;51.748;8.728;2023-12-20T14:26:40;20.87;;;3.80;;
12232;SDS011;6179;51.748;8.728;2023-12-20T14:32:41;8.20;;;3.50;;
12232;SDS011;6179;51.748;8.728;2023-12-20T14:38:43;11.20;;;4.20;;
12232;SDS011;6179;51.748;8.728;2023-12-20T14:44:44;9.83;;;3.57;;
12232;SDS011;6179;51.748;8.728;2023-12-20T14:50:45;23.83;;;6.70;;
12232;SDS011;6179;51.748;8.728;2023-12-20T14:56:48;8.20;;;4.20;;
12232;SDS011;6179;51.748;8.728;2023-12-20T15:02:49;37.30;;;4.30;;
12232;SDS011;6179;51.748;8.728;2023-12-20T15:08:50;20.03;;;4.53;;
12232;SDS011;6179;51.748;8.728;2023-12-20T15:14:52;17.23;;;4.27;;
12232;SDS011;6179;51.748;8.728;2023-12-20T15:20:53;5.47;;;3.67;;
12232;SDS011;6179;51.748;8.728;2023-12-20T15:26:54;7.70;;;3.93;;
12232;SDS011;6179;51.748;8.728;2023-12-20T15:32:56;12.30;;;5.17;;
12232;SDS011;6179;51.748;8.728;2023-12-20T15:38:57;15.43;;;4.03;;
12232;SDS011;6179;51.748;8.728;2023-12-20T15:44:58;26.47;;;4.60;;
12232;SDS011;6179;51.748;8.728;2023-12-20T15:50:59;11.20;;;5.53;;
12232;SDS011;6179;51.748;8.728;2023-12-20T15:57:04;10.13;;;3.93;;
12232;SDS011;6179;51.748;8.728;2023-12-20T16:03:05;23.07;;;6.00;;
12232;SDS011;6179;51.748;8.728;2023-12-20T16:09:06;9.57;;;6.50;;
12232;SDS011;6179;51.748;8.728;2023-12-20T16:15:07;11.50;;;6.60;;
12232;SDS011;6179;51.748;8.728;2023-12-20T16:21:08;21.30;;;7.07;;
12232;SDS011;6179;51.748;8.728;2023-12-20T16:27:09;16.13;;;6.40;;
12232;SDS011;6179;51.748;8.728;2023-12-20T16:33:11;11.83;;;4.10;;
12232;SDS011;6179;51.748;8.728;2023-12-20T16:39:12;16.53;;;5.13;;
12232;SDS011;6179;51.748;8.728;2023-12-20T16:45:12;21.83;;;5.80;;
12232;SDS011;6179;51.748;8.728;2023-12-20T16:51:14;14.00;;;5.50;;
12232;SDS011;6179;51.748;8.728;2023-12-20T16:57:15;21.10;;;6.77;;
12232;SDS011;6179;51.748;8.728;2023-12-20T17:03:18;13.90;;;5.20;;
12232;SDS011;6179;51.748;8.728;2023-12-20T17:09:20;14.40;;;7.57;;
12232;SDS011;6179;51.748;8.728;2023-12-20T17:15:21;16.27;;;8.10;;
12232;SDS011;6179;51.748;8.728;2023-12-20T17:21:22;20.03;;;8.17;;
12232;SDS011;6179;51.748;8.728;2023-12-20T17:27:23;22.33;;;7.53;;
12232;SDS011;6179;51.748;8.728;2023-12-20T17:33:24;26.80;;;9.77;;
12232;SDS011;6179;51.748;8.728;2023-12-20T17:39:26;30.07;;;9.10;;
12232;SDS011;6179;51.748;8.728;2023-12-20T17:45:27;14.80;;;8.20;;
12232;SDS011;6179;51.748;8.728;2023-12-20T17:51:28;24.07;;;8.17;;
12232;SDS011;6179;51.748;8.728;2023-12-20T17:57:29;16.83;;;6.90;;
12232;SDS011;6179;51.748;8.728;2023-12-20T18:03:30;16.03;;;8.50;;
12232;SDS011;6179;51.748;8.728;2023-12-20T18:09:31;20.10;;;8.67;;
12232;SDS011;6179;51.748;8.728;2023-12-20T18:15:32;22.27;;;9.30;;
12232;SDS011;6179;51.748;8.728;2023-12-20T18:21:33;34.10;;;8.33;;
12232;SDS011;6179;51.748;8.728;2023-12-20T18:27:34;16.53;;;6.70;;
12232;SDS011;6179;51.748;8.728;2023-12-20T18:33:35;17.93;;;6.77;;
12232;SDS011;6179;51.748;8.728;2023-12-20T18:39:36;15.13;;;6.40;;
12232;SDS011;6179;51.748;8.728;2023-12-20T18:45:41;25.77;;;6.63;;
12232;SDS011;6179;51.748;8.728;2023-12-20T18:51:42;21.03;;;6.53;;
12232;SDS011;6179;51.748;8.728;2023-12-20T18:57:43;9.83;;;5.33;;
12232;SDS011;6179;51.748;8.728;2023-12-20T19:03:45;10.23;;;5.03;;
12232;SDS011;6179;51.748;8.728;2023-12-20T19:09:46;18.40;;;5.67;;
12232;SDS011;6179;51.748;8.728;2023-12-20T19:15:47;15.07;;;6.43;;
12232;SDS011;6179;51.748;8.728;2023-12-20T19:21:48;11.83;;;5.90;;
12232;SDS011;6179;51.748;8.728;2023-12-20T19:27:49;12.93;;;4.37;;
12232;SDS011;6179;51.748;8.728;2023-12-20T19:33:50;6.90;;;4.13;;
12232;SDS011;6179;51.748;8.728;2023-12-20T19:39:52;13.13;;;4.17;;
12232;SDS011;6179;51.748;8.728;2023-12-20T19:45:53;12.13;;;5.27;;
12232;SDS011;6179;51.748;8.728;2023-12-20T19:51:54;7.90;;;3.40;;
12232;SDS011;6179;51.748;8.728;2023-12-20T19:57:55;14.60;;;4.90;;
12232;SDS011;6179;51.748;8.728;2023-12-20T20:03:58;11.27;;;5.40;;
12232;SDS011;6179;51.748;8.728;2023-12-20T20:09:59;14.20;;;4.37;;
12232;SDS011;6179;51.748;8.728;2023-12-20T20:16:00;7.63;;;3.80;;
12232;SDS011;6179;51.748;8.728;2023-12-20T20:22:01;17.13;;;5.80;;
12232;SDS011;6179;51.748;8.728;2023-12-20T20:28:04;9.67;;;4.80;;
12232;SDS011;6179;51.748;8.728;2023-12-20T20:34:05;8.27;;;4.50;;
12232;SDS011;6179;51.748;8.728;2023-12-20T20:40:06;14.50;;;5.97;;
12232;SDS011;6179;51.748;8.728;2023-12-20T20:46:07;10.90;;;4.57;;
12232;SDS011;6179;51.748;8.728;2023-12-20T20:52:08;7.33;;;3.77;;
12232;SDS011;6179;51.748;8.728;2023-12-20T20:58:09;7.90;;;4.10;;
12232;SDS011;6179;51.748;8.728;2023-12-20T21:04:10;5.93;;;3.37;;
12232;SDS011;6179;51.748;8.728;2023-12-20T21:10:11;9.70;;;3.83;;
12232;SDS011;6179;51.748;8.728;2023-12-20T21:16:13;14.33;;;3.47;;
12232;SDS011;6179;51.748;8.728;2023-12-20T21:22:14;8.20;;;3.10;;
12232;SDS011;6179;51.748;8.728;2023-12-20T21:28:15;5.07;;;2.70;;
12232;SDS011;6179;51.748;8.728;2023-12-20T21:34:16;12.33;;;3.33;;
12232;SDS011;6179;51.748;8.728;2023-12-20T21:40:17;4.87;;;1.70;;
12232;SDS011;6179;51.748;8.728;2023-12-20T21:46:18;6.53;;;4.47;;
12232;SDS011;6179;51.748;8.728;2023-12-20T21:52:19;2.97;;;1.70;;
12232;SDS011;6179;51.748;8.728;2023-12-20T21:58:20;4.83;;;2.83;;
12232;SDS011;6179;51.748;8.728;2023-12-20T22:04:21;5.57;;;1.87;;
12232;SDS011;6179;51.748;8.728;2023-12-20T22:10:22;1.20;;;1.10;;
12232;SDS011;6179;51.748;8.728;2023-12-20T22:16:23;6.70;;;1.60;;
12232;SDS011;6179;51.748;8.728;2023-12-20T22:22:24;3.77;;;1.17;;
12232;SDS011;6179;51.748;8.728;2023-12-20T22:28:25;8.47;;;2.77;;
12232;SDS011;6179;51.748;8.728;2023-12-20T22:34:26;1.07;;;0.90;;
12232;SDS011;6179;51.748;8.728;2023-12-20T22:40:27;3.03;;;0.80;;
12232;SDS011;6179;51.748;8.728;2023-12-20T22:46:28;0.90;;;0.90;;
12232;SDS011;6179;51.748;8.728;2023-12-20T22:52:30;2.80;;;1.00;;
12232;SDS011;6179;51.748;8.728;2023-12-20T22:58:31;1.80;;;0.80;;
12232;SDS011;6179;51.748;8.728;2023-12-20T23:04:32;1.70;;;0.90;;
12232;SDS011;6179;51.748;8.728;2023-12-20T23:10:34;1.00;;;1.00;;
12232;SDS011;6179;51.748;8.728;2023-12-20T23:16:36;0.90;;;0.80;;
12232;SDS011;6179;51.748;8.728;2023-12-20T23:22:37;2.87;;;0.60;;
12232;SDS011;6179;51.748;8.728;2023-12-20T23:28:38;3.73;;;0.60;;
12232;SDS011;6179;51.748;8.728;2023-12-20T23:34:40;1.90;;;1.00;;
12232;SDS011;6179;51.748;8.728;2023-12-20T23:40:41;0.80;;;0.80;;
12232;SDS011;6179;51.748;8.728;2023-12-20T23:46:42;1.90;;;0.90;;
12232;SDS011;6179;51.748;8.728;2023-12-20T23:52:43;1.20;;;0.83;;
12232;SDS011;6179;51.748;8.728;2023-12-20T23:58:44;1.00;;;0.90;;
